sensor_id;sensor_type;location;lat;lon;timestamp;P1;durP1;ratioP1;P2;durP2;ratioP2
18228;SDS011;9239;50.932;3.142;2023-11-22T00:01:01;15.83;;;12.53;;
18228;SDS011;9239;50.932;3.142;2023-11-22T00:06:25;17.80;;;13.20;;
18228;SDS011;9239;50.932;3.142;2023-11-22T00:08:52;16.57;;;12.97;;
18228;SDS011;9239;50.932;3.142;2023-11-22T00:11:20;17.03;;;13.17;;
18228;SDS011;9239;50.932;3.142;2023-11-22T00:13:47;20.50;;;13.10;;
18228;SDS011;9239;50.932;3.142;2023-11-22T00:16:14;16.40;;;13.33;;
18228;SDS011;9239;50.932;3.142;2023-11-22T00:18:41;17.10;;;13.57;;
18228;SDS011;9239;50.932;3.142;2023-11-22T00:21:08;17.10;;;13.73;;
18228;SDS011;9239;50.932;3.142;2023-11-22T00:23:36;17.77;;;13.17;;
18228;SDS011;9239;50.932;3.142;2023-11-22T00:26:03;15.43;;;12.60;;
18228;SDS011;9239;50.932;3.142;2023-11-22T00:28:32;18.80;;;13.10;;
18228;SDS011;9239;50.932;3.142;2023-11-22T00:30:59;17.73;;;13.03;;
18228;SDS011;9239;50.932;3.142;2023-11-22T00:33:26;18.27;;;14.30;;
18228;SDS011;9239;50.932;3.142;2023-11-22T00:35:53;17.33;;;13.53;;
18228;SDS011;9239;50.932;3.142;2023-11-22T00:38:21;17.43;;;13.43;;
18228;SDS011;9239;50.932;3.142;2023-11-22T00:40:48;18.27;;;13.10;;
18228;SDS011;9239;50.932;3.142;2023-11-22T00:43:15;16.00;;;12.60;;
18228;SDS011;9239;50.932;3.142;2023-11-22T00:45:45;17.43;;;13.93;;
18228;SDS011;9239;50.932;3.142;2023-11-22T00:48:12;16.43;;;12.70;;
18228;SDS011;9239;50.932;3.142;2023-11-22T00:50:39;17.60;;;13.23;;
18228;SDS011;9239;50.932;3.142;2023-11-22T00:53:06;18.30;;;14.50;;
18228;SDS011;9239;50.932;3.142;2023-11-22T00:55:32;24.13;;;13.10;;
18228;SDS011;9239;50.932;3.142;2023-11-22T00:58:00;15.93;;;13.30;;
18228;SDS011;9239;50.932;3.142;2023-11-22T01:00:29;16.40;;;12.83;;
18228;SDS011;9239;50.932;3.142;2023-11-22T01:02:57;16.00;;;13.37;;
18228;SDS011;9239;50.932;3.142;2023-11-22T01:05:24;19.80;;;15.10;;
18228;SDS011;9239;50.932;3.142;2023-11-22T01:07:51;17.10;;;12.90;;
18228;SDS011;9239;50.932;3.142;2023-11-22T01:10:18;19.23;;;13.57;;
18228;SDS011;9239;50.932;3.142;2023-11-22T01:12:45;16.60;;;13.67;;
18228;SDS011;9239;50.932;3.142;2023-11-22T01:15:12;15.83;;;12.90;;
18228;SDS011;9239;50.932;3.142;2023-11-22T01:17:39;18.20;;;13.67;;
18228;SDS011;9239;50.932;3.142;2023-11-22T01:20:08;20.20;;;13.73;;
18228;SDS011;9239;50.932;3.142;2023-11-22T01:22:36;17.43;;;13.47;;
18228;SDS011;9239;50.932;3.142;2023-11-22T01:25:04;19.67;;;14.30;;
18228;SDS011;9239;50.932;3.142;2023-11-22T01:27:31;19.67;;;14.17;;
18228;SDS011;9239;50.932;3.142;2023-11-22T01:29:58;17.87;;;13.77;;
18228;SDS011;9239;50.932;3.142;2023-11-22T01:32:25;17.23;;;14.20;;
18228;SDS011;9239;50.932;3.142;2023-11-22T01:34:52;18.00;;;15.47;;
18228;SDS011;9239;50.932;3.142;2023-11-22T01:37:20;15.87;;;13.17;;
18228;SDS011;9239;50.932;3.142;2023-11-22T01:39:47;20.80;;;15.00;;
18228;SDS011;9239;50.932;3.142;2023-11-22T01:42:14;22.17;;;15.07;;
18228;SDS011;9239;50.932;3.142;2023-11-22T01:44:41;19.00;;;13.67;;
18228;SDS011;9239;50.932;3.142;2023-11-22T01:47:08;18.23;;;13.93;;
18228;SDS011;9239;50.932;3.142;2023-11-22T01:49:35;20.10;;;14.67;;
18228;SDS011;9239;50.932;3.142;2023-11-22T01:52:02;20.00;;;14.70;;
18228;SDS011;9239;50.932;3.142;2023-11-22T01:54:31;23.63;;;15.77;;
18228;SDS011;9239;50.932;3.142;2023-11-22T01:56:59;18.53;;;14.33;;
18228;SDS011;9239;50.932;3.142;2023-11-22T01:59:27;19.20;;;14.60;;
18228;SDS011;9239;50.932;3.142;2023-11-22T02:01:56;19.53;;;14.77;;
18228;SDS011;9239;50.932;3.142;2023-11-22T02:04:23;21.37;;;14.57;;
18228;SDS011;9239;50.932;3.142;2023-11-22T02:06:51;23.10;;;15.57;;
18228;SDS011;9239;50.932;3.142;2023-11-22T02:09:18;18.50;;;14.33;;
18228;SDS011;9239;50.932;3.142;2023-11-22T02:11:46;21.60;;;14.33;;
18228;SDS011;9239;50.932;3.142;2023-11-22T02:14:14;20.23;;;14.13;;
18228;SDS011;9239;50.932;3.142;2023-11-22T02:16:41;17.33;;;13.60;;
18228;SDS011;9239;50.932;3.142;2023-11-22T02:19:09;21.83;;;14.90;;
18228;SDS011;9239;50.932;3.142;2023-11-22T02:21:41;22.07;;;15.17;;
18228;SDS011;9239;50.932;3.142;2023-11-22T02:24:09;19.60;;;14.03;;
18228;SDS011;9239;50.932;3.142;2023-11-22T02:26:36;20.30;;;14.70;;
18228;SDS011;9239;50.932;3.142;2023-11-22T02:29:04;20.27;;;15.17;;
18228;SDS011;9239;50.932;3.142;2023-11-22T02:31:31;17.70;;;13.93;;
18228;SDS011;9239;50.932;3.142;2023-11-22T02:33:59;19.30;;;15.10;;
18228;SDS011;9239;50.932;3.142;2023-11-22T02:36:26;19.30;;;14.60;;
18228;SDS011;9239;50.932;3.142;2023-11-22T02:38:52;21.10;;;14.77;;
18228;SDS011;9239;50.932;3.142;2023-11-22T02:41:21;20.23;;;15.57;;
18228;SDS011;9239;50.932;3.142;2023-11-22T02:43:50;18.77;;;14.27;;
18228;SDS011;9239;50.932;3.142;2023-11-22T02:46:17;19.30;;;13.90;;
18228;SDS011;9239;50.932;3.142;2023-11-22T02:48:43;18.93;;;13.90;;
18228;SDS011;9239;50.932;3.142;2023-11-22T02:51:10;21.20;;;16.30;;
18228;SDS011;9239;50.932;3.142;2023-11-22T02:53:38;22.93;;;14.03;;
18228;SDS011;9239;50.932;3.142;2023-11-22T02:56:08;20.63;;;14.83;;
18228;SDS011;9239;50.932;3.142;2023-11-22T02:58:38;19.60;;;14.00;;
18228;SDS011;9239;50.932;3.142;2023-11-22T03:01:05;21.40;;;15.10;;
18228;SDS011;9239;50.932;3.142;2023-11-22T03:03:33;19.23;;;15.13;;
18228;SDS011;9239;50.932;3.142;2023-11-22T03:06:00;19.73;;;13.43;;
18228;SDS011;9239;50.932;3.142;2023-11-22T03:08:27;18.63;;;13.90;;
18228;SDS011;9239;50.932;3.142;2023-11-22T03:10:53;17.87;;;13.97;;
18228;SDS011;9239;50.932;3.142;2023-11-22T03:13:20;20.73;;;14.80;;
18228;SDS011;9239;50.932;3.142;2023-11-22T03:15:48;18.77;;;14.23;;
18228;SDS011;9239;50.932;3.142;2023-11-22T03:18:15;19.70;;;14.90;;
18228;SDS011;9239;50.932;3.142;2023-11-22T03:20:43;18.53;;;13.53;;
18228;SDS011;9239;50.932;3.142;2023-11-22T03:23:10;16.80;;;13.20;;
18228;SDS011;9239;50.932;3.142;2023-11-22T03:25:37;20.40;;;14.07;;
18228;SDS011;9239;50.932;3.142;2023-11-22T03:28:03;20.50;;;15.23;;
18228;SDS011;9239;50.932;3.142;2023-11-22T03:30:31;21.20;;;15.67;;
18228;SDS011;9239;50.932;3.142;2023-11-22T03:32:59;21.80;;;14.73;;
18228;SDS011;9239;50.932;3.142;2023-11-22T03:35:26;18.57;;;15.10;;
18228;SDS011;9239;50.932;3.142;2023-11-22T03:37:54;20.87;;;15.07;;
18228;SDS011;9239;50.932;3.142;2023-11-22T03:40:21;27.40;;;16.57;;
18228;SDS011;9239;50.932;3.142;2023-11-22T03:42:47;25.87;;;18.20;;
18228;SDS011;9239;50.932;3.142;2023-11-22T03:45:14;22.80;;;16.43;;
18228;SDS011;9239;50.932;3.142;2023-11-22T03:47:41;21.30;;;15.73;;
18228;SDS011;9239;50.932;3.142;2023-11-22T03:50:10;23.00;;;16.60;;
18228;SDS011;9239;50.932;3.142;2023-11-22T03:52:37;22.13;;;17.13;;
18228;SDS011;9239;50.932;3.142;2023-11-22T03:55:04;21.67;;;15.80;;
18228;SDS011;9239;50.932;3.142;2023-11-22T03:57:32;22.83;;;15.67;;
18228;SDS011;9239;50.932;3.142;2023-11-22T03:59:58;22.50;;;15.53;;
18228;SDS011;9239;50.932;3.142;2023-11-22T04:02:25;21.37;;;15.30;;
18228;SDS011;9239;50.932;3.142;2023-11-22T04:04:53;22.60;;;15.80;;
18228;SDS011;9239;50.932;3.142;2023-11-22T04:07:21;19.83;;;16.23;;
18228;SDS011;9239;50.932;3.142;2023-11-22T04:09:48;19.60;;;15.17;;
18228;SDS011;9239;50.932;3.142;2023-11-22T04:12:15;19.67;;;14.90;;
18228;SDS011;9239;50.932;3.142;2023-11-22T04:14:42;21.37;;;15.27;;
18228;SDS011;9239;50.932;3.142;2023-11-22T04:17:10;20.37;;;15.23;;
18228;SDS011;9239;50.932;3.142;2023-11-22T04:19:37;21.30;;;14.40;;
18228;SDS011;9239;50.932;3.142;2023-11-22T04:22:03;21.30;;;15.37;;
18228;SDS011;9239;50.932;3.142;2023-11-22T04:24:31;19.80;;;14.57;;
18228;SDS011;9239;50.932;3.142;2023-11-22T04:26:58;19.93;;;15.50;;
18228;SDS011;9239;50.932;3.142;2023-11-22T04:29:26;24.07;;;15.87;;
18228;SDS011;9239;50.932;3.142;2023-11-22T04:31:53;18.70;;;14.43;;
18228;SDS011;9239;50.932;3.142;2023-11-22T04:34:20;21.00;;;14.90;;
18228;SDS011;9239;50.932;3.142;2023-11-22T04:36:47;21.30;;;14.80;;
18228;SDS011;9239;50.932;3.142;2023-11-22T04:39:13;19.73;;;13.70;;
18228;SDS011;9239;50.932;3.142;2023-11-22T04:41:42;21.00;;;16.30;;
18228;SDS011;9239;50.932;3.142;2023-11-22T04:44:08;20.17;;;15.57;;
18228;SDS011;9239;50.932;3.142;2023-11-22T04:46:35;18.23;;;14.33;;
18228;SDS011;9239;50.932;3.142;2023-11-22T04:49:02;18.17;;;15.03;;
18228;SDS011;9239;50.932;3.142;2023-11-22T04:51:29;21.83;;;16.27;;
18228;SDS011;9239;50.932;3.142;2023-11-22T04:53:57;21.70;;;15.83;;
18228;SDS011;9239;50.932;3.142;2023-11-22T04:56:24;19.63;;;15.17;;
18228;SDS011;9239;50.932;3.142;2023-11-22T04:58:52;21.13;;;15.17;;
18228;SDS011;9239;50.932;3.142;2023-11-22T05:01:19;20.70;;;16.00;;
18228;SDS011;9239;50.932;3.142;2023-11-22T05:03:46;18.50;;;15.03;;
18228;SDS011;9239;50.932;3.142;2023-11-22T05:06:13;23.90;;;15.90;;
18228;SDS011;9239;50.932;3.142;2023-11-22T05:08:41;20.27;;;15.63;;
18228;SDS011;9239;50.932;3.142;2023-11-22T05:11:08;24.20;;;17.07;;
18228;SDS011;9239;50.932;3.142;2023-11-22T05:13:35;21.60;;;15.67;;
18228;SDS011;9239;50.932;3.142;2023-11-22T05:16:03;21.00;;;15.87;;
18228;SDS011;9239;50.932;3.142;2023-11-22T05:18:30;24.30;;;15.40;;
18228;SDS011;9239;50.932;3.142;2023-11-22T05:20:57;19.13;;;13.90;;
18228;SDS011;9239;50.932;3.142;2023-11-22T05:23:24;21.83;;;15.73;;
18228;SDS011;9239;50.932;3.142;2023-11-22T05:25:51;19.27;;;14.40;;
18228;SDS011;9239;50.932;3.142;2023-11-22T05:28:18;23.37;;;16.73;;
18228;SDS011;9239;50.932;3.142;2023-11-22T05:30:44;19.73;;;15.27;;
18228;SDS011;9239;50.932;3.142;2023-11-22T05:33:13;19.83;;;15.27;;
18228;SDS011;9239;50.932;3.142;2023-11-22T05:35:40;21.37;;;15.97;;
18228;SDS011;9239;50.932;3.142;2023-11-22T05:38:07;22.23;;;15.77;;
18228;SDS011;9239;50.932;3.142;2023-11-22T05:40:35;20.80;;;15.93;;
18228;SDS011;9239;50.932;3.142;2023-11-22T05:43:02;20.63;;;16.33;;
18228;SDS011;9239;50.932;3.142;2023-11-22T05:45:28;22.23;;;15.70;;
18228;SDS011;9239;50.932;3.142;2023-11-22T05:47:55;18.83;;;14.80;;
18228;SDS011;9239;50.932;3.142;2023-11-22T05:50:23;21.43;;;14.40;;
18228;SDS011;9239;50.932;3.142;2023-11-22T05:52:50;20.67;;;15.20;;
18228;SDS011;9239;50.932;3.142;2023-11-22T05:55:17;17.93;;;14.90;;
18228;SDS011;9239;50.932;3.142;2023-11-22T05:57:44;19.33;;;14.33;;
18228;SDS011;9239;50.932;3.142;2023-11-22T06:00:12;19.60;;;15.63;;
18228;SDS011;9239;50.932;3.142;2023-11-22T06:02:40;22.73;;;15.80;;
18228;SDS011;9239;50.932;3.142;2023-11-22T06:05:07;22.73;;;15.83;;
18228;SDS011;9239;50.932;3.142;2023-11-22T06:07:37;18.83;;;14.60;;
18228;SDS011;9239;50.932;3.142;2023-11-22T06:10:04;16.53;;;14.00;;
18228;SDS011;9239;50.932;3.142;2023-11-22T06:12:32;18.60;;;13.83;;
18228;SDS011;9239;50.932;3.142;2023-11-22T06:14:59;18.13;;;14.83;;
18228;SDS011;9239;50.932;3.142;2023-11-22T06:17:25;23.73;;;15.47;;
18228;SDS011;9239;50.932;3.142;2023-11-22T06:19:54;23.70;;;16.30;;
18228;SDS011;9239;50.932;3.142;2023-11-22T06:22:21;25.03;;;15.50;;
18228;SDS011;9239;50.932;3.142;2023-11-22T06:24:49;23.00;;;16.33;;
18228;SDS011;9239;50.932;3.142;2023-11-22T06:27:16;20.80;;;15.90;;
18228;SDS011;9239;50.932;3.142;2023-11-22T06:29:43;21.77;;;16.40;;
18228;SDS011;9239;50.932;3.142;2023-11-22T06:32:10;22.93;;;15.57;;
18228;SDS011;9239;50.932;3.142;2023-11-22T06:34:37;21.73;;;15.03;;
18228;SDS011;9239;50.932;3.142;2023-11-22T06:37:04;20.63;;;15.83;;
18228;SDS011;9239;50.932;3.142;2023-11-22T06:39:33;23.20;;;16.23;;
18228;SDS011;9239;50.932;3.142;2023-11-22T06:42:02;23.87;;;16.90;;
18228;SDS011;9239;50.932;3.142;2023-11-22T06:44:29;21.50;;;16.43;;
18228;SDS011;9239;50.932;3.142;2023-11-22T06:46:56;23.40;;;16.30;;
18228;SDS011;9239;50.932;3.142;2023-11-22T06:49:23;24.40;;;17.03;;
18228;SDS011;9239;50.932;3.142;2023-11-22T06:51:50;22.03;;;17.07;;
18228;SDS011;9239;50.932;3.142;2023-11-22T06:54:18;25.00;;;17.23;;
18228;SDS011;9239;50.932;3.142;2023-11-22T06:56:46;25.43;;;17.83;;
18228;SDS011;9239;50.932;3.142;2023-11-22T06:59:14;25.33;;;18.50;;
18228;SDS011;9239;50.932;3.142;2023-11-22T07:01:41;24.60;;;18.67;;
18228;SDS011;9239;50.932;3.142;2023-11-22T07:04:08;23.63;;;16.00;;
18228;SDS011;9239;50.932;3.142;2023-11-22T07:06:35;20.83;;;15.87;;
18228;SDS011;9239;50.932;3.142;2023-11-22T07:09:02;20.80;;;15.83;;
18228;SDS011;9239;50.932;3.142;2023-11-22T07:11:29;24.53;;;17.37;;
18228;SDS011;9239;50.932;3.142;2023-11-22T07:13:56;20.50;;;15.87;;
18228;SDS011;9239;50.932;3.142;2023-11-22T07:16:25;22.93;;;15.27;;
18228;SDS011;9239;50.932;3.142;2023-11-22T07:18:52;34.97;;;26.80;;
18228;SDS011;9239;50.932;3.142;2023-11-22T07:21:18;29.60;;;25.17;;
18228;SDS011;9239;50.932;3.142;2023-11-22T07:23:46;30.50;;;21.97;;
18228;SDS011;9239;50.932;3.142;2023-11-22T07:26:13;20.97;;;17.20;;
18228;SDS011;9239;50.932;3.142;2023-11-22T07:28:40;23.40;;;16.67;;
18228;SDS011;9239;50.932;3.142;2023-11-22T07:31:07;22.60;;;16.80;;
18228;SDS011;9239;50.932;3.142;2023-11-22T07:33:35;25.07;;;17.93;;
18228;SDS011;9239;50.932;3.142;2023-11-22T07:36:03;21.77;;;16.47;;
18228;SDS011;9239;50.932;3.142;2023-11-22T07:38:31;20.77;;;15.57;;
18228;SDS011;9239;50.932;3.142;2023-11-22T07:40:58;25.60;;;17.87;;
18228;SDS011;9239;50.932;3.142;2023-11-22T07:43:25;24.37;;;17.60;;
18228;SDS011;9239;50.932;3.142;2023-11-22T07:45:52;25.23;;;19.33;;
18228;SDS011;9239;50.932;3.142;2023-11-22T07:48:19;29.07;;;20.80;;
18228;SDS011;9239;50.932;3.142;2023-11-22T07:50:49;27.83;;;19.00;;
18228;SDS011;9239;50.932;3.142;2023-11-22T07:53:17;27.47;;;20.37;;
18228;SDS011;9239;50.932;3.142;2023-11-22T07:55:44;24.33;;;18.93;;
18228;SDS011;9239;50.932;3.142;2023-11-22T07:58:11;26.50;;;18.93;;
18228;SDS011;9239;50.932;3.142;2023-11-22T08:00:38;26.07;;;19.10;;
18228;SDS011;9239;50.932;3.142;2023-11-22T08:03:07;32.63;;;25.90;;
18228;SDS011;9239;50.932;3.142;2023-11-22T08:05:34;33.70;;;28.70;;
18228;SDS011;9239;50.932;3.142;2023-11-22T08:08:03;34.93;;;28.67;;
18228;SDS011;9239;50.932;3.142;2023-11-22T08:10:33;34.10;;;26.60;;
18228;SDS011;9239;50.932;3.142;2023-11-22T08:13:00;26.50;;;21.50;;
18228;SDS011;9239;50.932;3.142;2023-11-22T08:15:27;26.67;;;20.00;;
18228;SDS011;9239;50.932;3.142;2023-11-22T08:17:56;22.90;;;17.80;;
18228;SDS011;9239;50.932;3.142;2023-11-22T08:20:23;24.90;;;17.40;;
18228;SDS011;9239;50.932;3.142;2023-11-22T08:22:50;27.57;;;17.13;;
18228;SDS011;9239;50.932;3.142;2023-11-22T08:25:19;24.47;;;16.20;;
18228;SDS011;9239;50.932;3.142;2023-11-22T08:27:46;22.90;;;16.87;;
18228;SDS011;9239;50.932;3.142;2023-11-22T08:30:13;22.50;;;17.20;;
18228;SDS011;9239;50.932;3.142;2023-11-22T08:32:41;23.13;;;17.73;;
18228;SDS011;9239;50.932;3.142;2023-11-22T08:35:09;26.17;;;17.83;;
18228;SDS011;9239;50.932;3.142;2023-11-22T08:37:39;22.70;;;18.23;;
18228;SDS011;9239;50.932;3.142;2023-11-22T08:40:08;25.53;;;18.23;;
18228;SDS011;9239;50.932;3.142;2023-11-22T08:42:37;22.73;;;17.93;;
18228;SDS011;9239;50.932;3.142;2023-11-22T08:45:06;27.23;;;18.40;;
18228;SDS011;9239;50.932;3.142;2023-11-22T08:47:34;24.23;;;17.87;;
18228;SDS011;9239;50.932;3.142;2023-11-22T08:50:01;25.63;;;18.90;;
18228;SDS011;9239;50.932;3.142;2023-11-22T08:52:30;24.17;;;18.53;;
18228;SDS011;9239;50.932;3.142;2023-11-22T08:54:57;24.97;;;18.57;;
18228;SDS011;9239;50.932;3.142;2023-11-22T08:57:25;25.30;;;18.57;;
18228;SDS011;9239;50.932;3.142;2023-11-22T08:59:53;24.23;;;19.17;;
18228;SDS011;9239;50.932;3.142;2023-11-22T09:02:21;28.40;;;19.07;;
18228;SDS011;9239;50.932;3.142;2023-11-22T09:04:48;25.40;;;18.90;;
18228;SDS011;9239;50.932;3.142;2023-11-22T09:07:15;24.07;;;17.57;;
18228;SDS011;9239;50.932;3.142;2023-11-22T09:09:43;25.70;;;18.67;;
18228;SDS011;9239;50.932;3.142;2023-11-22T09:12:10;25.83;;;20.00;;
18228;SDS011;9239;50.932;3.142;2023-11-22T09:14:38;26.10;;;20.00;;
18228;SDS011;9239;50.932;3.142;2023-11-22T09:17:08;25.77;;;19.03;;
18228;SDS011;9239;50.932;3.142;2023-11-22T09:19:35;29.53;;;20.93;;
18228;SDS011;9239;50.932;3.142;2023-11-22T09:22:03;32.53;;;22.67;;
18228;SDS011;9239;50.932;3.142;2023-11-22T09:24:32;31.37;;;20.40;;
18228;SDS011;9239;50.932;3.142;2023-11-22T09:27:01;25.53;;;18.97;;
18228;SDS011;9239;50.932;3.142;2023-11-22T09:29:30;25.57;;;19.60;;
18228;SDS011;9239;50.932;3.142;2023-11-22T09:31:57;24.70;;;19.70;;
18228;SDS011;9239;50.932;3.142;2023-11-22T09:34:27;24.93;;;18.37;;
18228;SDS011;9239;50.932;3.142;2023-11-22T09:36:55;23.93;;;18.13;;
18228;SDS011;9239;50.932;3.142;2023-11-22T09:39:22;23.83;;;17.67;;
18228;SDS011;9239;50.932;3.142;2023-11-22T09:41:50;23.90;;;18.33;;
18228;SDS011;9239;50.932;3.142;2023-11-22T09:44:18;26.40;;;18.77;;
18228;SDS011;9239;50.932;3.142;2023-11-22T09:46:47;25.00;;;17.87;;
18228;SDS011;9239;50.932;3.142;2023-11-22T09:49:18;24.63;;;18.00;;
18228;SDS011;9239;50.932;3.142;2023-11-22T09:51:52;23.43;;;19.30;;
18228;SDS011;9239;50.932;3.142;2023-11-22T09:54:22;22.13;;;17.90;;
18228;SDS011;9239;50.932;3.142;2023-11-22T09:56:55;22.13;;;18.50;;
18228;SDS011;9239;50.932;3.142;2023-11-22T09:59:26;29.30;;;18.67;;
18228;SDS011;9239;50.932;3.142;2023-11-22T10:01:54;22.03;;;16.70;;
18228;SDS011;9239;50.932;3.142;2023-11-22T10:04:24;23.80;;;18.53;;
18228;SDS011;9239;50.932;3.142;2023-11-22T10:06:55;21.70;;;18.07;;
18228;SDS011;9239;50.932;3.142;2023-11-22T10:09:23;22.63;;;19.13;;
18228;SDS011;9239;50.932;3.142;2023-11-22T10:11:52;25.23;;;18.67;;
18228;SDS011;9239;50.932;3.142;2023-11-22T10:14:22;28.03;;;19.17;;
18228;SDS011;9239;50.932;3.142;2023-11-22T10:16:57;24.10;;;18.60;;
18228;SDS011;9239;50.932;3.142;2023-11-22T10:19:25;21.53;;;16.90;;
18228;SDS011;9239;50.932;3.142;2023-11-22T10:22:03;23.40;;;17.37;;
18228;SDS011;9239;50.932;3.142;2023-11-22T10:24:31;21.90;;;18.07;;
18228;SDS011;9239;50.932;3.142;2023-11-22T10:26:59;21.07;;;18.57;;
18228;SDS011;9239;50.932;3.142;2023-11-22T10:29:26;25.37;;;18.20;;
18228;SDS011;9239;50.932;3.142;2023-11-22T10:31:54;23.47;;;18.37;;
18228;SDS011;9239;50.932;3.142;2023-11-22T10:34:22;23.60;;;18.47;;
18228;SDS011;9239;50.932;3.142;2023-11-22T10:36:50;24.73;;;18.47;;
18228;SDS011;9239;50.932;3.142;2023-11-22T10:39:20;21.43;;;16.83;;
18228;SDS011;9239;50.932;3.142;2023-11-22T10:41:46;23.07;;;17.33;;
18228;SDS011;9239;50.932;3.142;2023-11-22T10:44:16;24.80;;;18.17;;
18228;SDS011;9239;50.932;3.142;2023-11-22T10:46:46;22.63;;;16.77;;
18228;SDS011;9239;50.932;3.142;2023-11-22T10:49:13;23.53;;;17.93;;
18228;SDS011;9239;50.932;3.142;2023-11-22T10:51:40;22.43;;;16.63;;
18228;SDS011;9239;50.932;3.142;2023-11-22T10:54:10;19.30;;;15.80;;
18228;SDS011;9239;50.932;3.142;2023-11-22T10:56:39;23.03;;;16.83;;
18228;SDS011;9239;50.932;3.142;2023-11-22T10:59:09;21.23;;;15.87;;
18228;SDS011;9239;50.932;3.142;2023-11-22T11:01:39;22.63;;;17.63;;
18228;SDS011;9239;50.932;3.142;2023-11-22T11:04:15;22.83;;;16.77;;
18228;SDS011;9239;50.932;3.142;2023-11-22T11:06:51;21.07;;;15.53;;
18228;SDS011;9239;50.932;3.142;2023-11-22T11:09:21;22.77;;;17.53;;
18228;SDS011;9239;50.932;3.142;2023-11-22T11:11:53;20.60;;;16.17;;
18228;SDS011;9239;50.932;3.142;2023-11-22T11:14:22;20.40;;;15.87;;
18228;SDS011;9239;50.932;3.142;2023-11-22T11:16:49;23.63;;;16.83;;
18228;SDS011;9239;50.932;3.142;2023-11-22T11:19:19;19.67;;;16.53;;
18228;SDS011;9239;50.932;3.142;2023-11-22T11:21:47;18.83;;;15.33;;
18228;SDS011;9239;50.932;3.142;2023-11-22T11:24:14;22.70;;;15.60;;
18228;SDS011;9239;50.932;3.142;2023-11-22T11:26:41;20.37;;;16.07;;
18228;SDS011;9239;50.932;3.142;2023-11-22T11:29:30;20.40;;;14.30;;
18228;SDS011;9239;50.932;3.142;2023-11-22T11:31:58;17.13;;;14.77;;
18228;SDS011;9239;50.932;3.142;2023-11-22T11:34:24;19.33;;;15.47;;
18228;SDS011;9239;50.932;3.142;2023-11-22T11:36:52;20.23;;;16.30;;
18228;SDS011;9239;50.932;3.142;2023-11-22T11:39:24;21.97;;;16.27;;
18228;SDS011;9239;50.932;3.142;2023-11-22T11:42:07;19.47;;;14.83;;
18228;SDS011;9239;50.932;3.142;2023-11-22T11:44:36;18.07;;;14.23;;
18228;SDS011;9239;50.932;3.142;2023-11-22T11:47:10;19.77;;;15.07;;
18228;SDS011;9239;50.932;3.142;2023-11-22T11:49:37;18.83;;;15.00;;
18228;SDS011;9239;50.932;3.142;2023-11-22T11:52:05;19.13;;;14.53;;
18228;SDS011;9239;50.932;3.142;2023-11-22T11:54:33;17.70;;;14.83;;
18228;SDS011;9239;50.932;3.142;2023-11-22T11:57:00;16.70;;;14.60;;
18228;SDS011;9239;50.932;3.142;2023-11-22T11:59:27;19.17;;;13.83;;
18228;SDS011;9239;50.932;3.142;2023-11-22T12:01:56;16.70;;;14.50;;
18228;SDS011;9239;50.932;3.142;2023-11-22T12:04:25;18.03;;;15.60;;
18228;SDS011;9239;50.932;3.142;2023-11-22T12:06:52;19.23;;;14.50;;
18228;SDS011;9239;50.932;3.142;2023-11-22T12:09:22;16.00;;;13.57;;
18228;SDS011;9239;50.932;3.142;2023-11-22T12:11:50;14.20;;;11.83;;
18228;SDS011;9239;50.932;3.142;2023-11-22T12:14:18;14.33;;;12.30;;
18228;SDS011;9239;50.932;3.142;2023-11-22T12:16:45;13.57;;;12.13;;
18228;SDS011;9239;50.932;3.142;2023-11-22T12:19:21;15.43;;;12.83;;
18228;SDS011;9239;50.932;3.142;2023-11-22T12:21:49;15.30;;;11.67;;
18228;SDS011;9239;50.932;3.142;2023-11-22T12:24:16;14.77;;;12.37;;
18228;SDS011;9239;50.932;3.142;2023-11-22T12:26:44;14.33;;;11.67;;
18228;SDS011;9239;50.932;3.142;2023-11-22T12:29:13;15.40;;;12.07;;
18228;SDS011;9239;50.932;3.142;2023-11-22T12:31:46;14.27;;;12.50;;
18228;SDS011;9239;50.932;3.142;2023-11-22T12:34:15;16.77;;;13.43;;
18228;SDS011;9239;50.932;3.142;2023-11-22T12:36:45;16.90;;;13.77;;
18228;SDS011;9239;50.932;3.142;2023-11-22T12:39:13;13.73;;;11.80;;
18228;SDS011;9239;50.932;3.142;2023-11-22T12:41:45;14.57;;;11.80;;
18228;SDS011;9239;50.932;3.142;2023-11-22T12:44:13;14.27;;;12.20;;
18228;SDS011;9239;50.932;3.142;2023-11-22T12:46:49;15.37;;;12.20;;
18228;SDS011;9239;50.932;3.142;2023-11-22T12:49:22;17.90;;;13.77;;
18228;SDS011;9239;50.932;3.142;2023-11-22T12:51:51;14.53;;;12.73;;
18228;SDS011;9239;50.932;3.142;2023-11-22T12:54:18;14.80;;;11.97;;
18228;SDS011;9239;50.932;3.142;2023-11-22T12:56:47;13.40;;;11.63;;
18228;SDS011;9239;50.932;3.142;2023-11-22T12:59:15;13.17;;;10.90;;
18228;SDS011;9239;50.932;3.142;2023-11-22T13:01:43;13.57;;;11.97;;
18228;SDS011;9239;50.932;3.142;2023-11-22T13:04:10;13.90;;;10.90;;
18228;SDS011;9239;50.932;3.142;2023-11-22T13:06:40;12.87;;;11.57;;
18228;SDS011;9239;50.932;3.142;2023-11-22T13:09:09;15.43;;;12.13;;
18228;SDS011;9239;50.932;3.142;2023-11-22T13:11:40;13.13;;;11.77;;
18228;SDS011;9239;50.932;3.142;2023-11-22T13:14:08;14.97;;;11.93;;
18228;SDS011;9239;50.932;3.142;2023-11-22T13:16:35;15.73;;;12.80;;
18228;SDS011;9239;50.932;3.142;2023-11-22T13:19:04;14.40;;;11.47;;
18228;SDS011;9239;50.932;3.142;2023-11-22T13:21:31;13.13;;;10.67;;
18228;SDS011;9239;50.932;3.142;2023-11-22T13:23:58;13.63;;;11.30;;
18228;SDS011;9239;50.932;3.142;2023-11-22T13:26:26;13.83;;;12.33;;
18228;SDS011;9239;50.932;3.142;2023-11-22T13:28:53;18.47;;;12.80;;
18228;SDS011;9239;50.932;3.142;2023-11-22T13:31:21;16.70;;;12.87;;
18228;SDS011;9239;50.932;3.142;2023-11-22T13:33:49;12.70;;;11.30;;
18228;SDS011;9239;50.932;3.142;2023-11-22T13:36:16;15.67;;;12.70;;
18228;SDS011;9239;50.932;3.142;2023-11-22T13:38:43;16.57;;;12.03;;
18228;SDS011;9239;50.932;3.142;2023-11-22T13:41:10;14.67;;;12.30;;
18228;SDS011;9239;50.932;3.142;2023-11-22T13:43:38;14.37;;;11.07;;
18228;SDS011;9239;50.932;3.142;2023-11-22T13:46:05;14.67;;;11.67;;
18228;SDS011;9239;50.932;3.142;2023-11-22T13:48:35;13.27;;;11.30;;
18228;SDS011;9239;50.932;3.142;2023-11-22T13:51:02;13.83;;;11.90;;
18228;SDS011;9239;50.932;3.142;2023-11-22T13:53:29;16.20;;;13.33;;
18228;SDS011;9239;50.932;3.142;2023-11-22T13:55:59;15.73;;;12.43;;
18228;SDS011;9239;50.932;3.142;2023-11-22T13:58:30;15.50;;;12.20;;
18228;SDS011;9239;50.932;3.142;2023-11-22T14:00:58;14.67;;;11.90;;
18228;SDS011;9239;50.932;3.142;2023-11-22T14:03:26;15.83;;;13.20;;
18228;SDS011;9239;50.932;3.142;2023-11-22T14:05:53;15.80;;;12.30;;
18228;SDS011;9239;50.932;3.142;2023-11-22T14:08:22;17.00;;;13.20;;
18228;SDS011;9239;50.932;3.142;2023-11-22T14:10:50;16.13;;;13.63;;
18228;SDS011;9239;50.932;3.142;2023-11-22T14:13:17;17.80;;;13.33;;
18228;SDS011;9239;50.932;3.142;2023-11-22T14:15:46;16.77;;;13.00;;
18228;SDS011;9239;50.932;3.142;2023-11-22T14:18:14;16.20;;;13.80;;
18228;SDS011;9239;50.932;3.142;2023-11-22T14:20:42;16.90;;;12.77;;
18228;SDS011;9239;50.932;3.142;2023-11-22T14:23:09;15.70;;;12.20;;
18228;SDS011;9239;50.932;3.142;2023-11-22T14:25:36;17.20;;;12.33;;
18228;SDS011;9239;50.932;3.142;2023-11-22T14:28:03;13.53;;;11.63;;
18228;SDS011;9239;50.932;3.142;2023-11-22T14:30:30;15.53;;;13.43;;
18228;SDS011;9239;50.932;3.142;2023-11-22T14:33:00;14.70;;;11.60;;
18228;SDS011;9239;50.932;3.142;2023-11-22T14:35:32;13.77;;;12.37;;
18228;SDS011;9239;50.932;3.142;2023-11-22T14:38:00;16.33;;;13.10;;
18228;SDS011;9239;50.932;3.142;2023-11-22T14:40:28;14.17;;;12.17;;